Time;durP1;ratioP1;P1;durP2;ratioP2;P2;SDS_P1;SDS_P2;PMS_P1;PMS_P2;Temp;Humidity;BMP_temperature;BMP_pressure;BME280_temperature;BME280_humidity;BME280_pressure;Samples;Min_cycle;Max_cycle;Signal;HPM_P1;HPM_P2
2022/03/04 00:02:03;;;;;;;14.23;7.75;;;2.60;99.90;;;;;;6121542;23;20025;-86
2022/03/04 00:04:29;;;;;;;16.05;7.47;;;2.60;99.90;;;;;;6120983;23;20348;-86
2022/03/04 00:06:55;;;;;;;16.65;7.85;;;2.50;99.90;;;;;;6121642;23;20022;-86
2022/03/04 00:09:21;;;;;;;14.00;6.80;;;2.50;99.90;;;;;;6121660;23;20052;-87
2022/03/04 00:11:48;;;;;;;12.82;6.38;;;2.50;99.90;;;;;;6120962;23;20010;-86
2022/03/04 00:14:14;;;;;;;15.90;7.13;;;2.40;99.90;;;;;;6125219;23;20475;-86
2022/03/04 00:16:40;;;;;;;16.48;7.28;;;2.40;99.90;;;;;;6098383;23;20013;-86
2022/03/04 00:19:06;;;;;;;17.00;8.10;;;2.30;99.90;;;;;;6122234;23;20010;-86
2022/03/04 00:21:41;;;;;;;16.42;7.65;;;2.30;99.90;;;;;;6121668;23;20101;-85
2022/03/04 00:24:08;;;;;;;13.52;6.40;;;2.20;99.90;;;;;;6097353;23;20024;-85
2022/03/04 00:26:34;;;;;;;17.25;7.47;;;2.20;99.90;;;;;;6122067;23;20021;-86
2022/03/04 00:29:00;;;;;;;14.27;6.38;;;2.20;99.90;;;;;;6098193;23;20049;-86
2022/03/04 00:31:26;;;;;;;16.17;7.32;;;2.10;99.90;;;;;;6120458;23;20018;-86
2022/03/04 00:33:52;;;;;;;15.27;7.00;;;2.10;99.90;;;;;;6120728;23;20018;-86
2022/03/04 00:36:22;;;;;;;16.58;7.47;;;2.00;99.90;;;;;;6097961;23;20068;-86
2022/03/04 00:38:49;;;;;;;12.93;6.68;;;2.00;99.90;;;;;;6098211;23;20068;-86
2022/03/04 00:41:15;;;;;;;16.70;7.15;;;2.00;99.90;;;;;;6122201;23;20404;-86
2022/03/04 00:43:43;;;;;;;15.27;6.88;;;2.00;99.90;;;;;;6121713;23;20343;-86
2022/03/04 00:46:09;;;;;;;14.55;7.13;;;1.90;99.90;;;;;;6120875;23;20056;-86
2022/03/04 00:48:34;;;;;;;14.70;6.88;;;1.90;99.90;;;;;;6121724;23;20018;-86
2022/03/04 00:51:00;;;;;;;14.07;7.28;;;1.80;99.90;;;;;;6121265;23;20049;-86
2022/03/04 00:53:26;;;;;;;17.05;6.97;;;1.80;99.90;;;;;;6121788;23;20029;-86
2022/03/04 00:55:51;;;;;;;14.95;6.72;;;1.80;99.90;;;;;;6097901;23;20014;-85
2022/03/04 00:58:19;;;;;;;15.80;6.20;;;1.70;99.90;;;;;;6123013;23;20038;-86
2022/03/04 01:00:45;;;;;;;13.60;6.38;;;1.70;99.90;;;;;;6122610;23;20014;-85
2022/03/04 01:03:11;;;;;;;17.75;7.40;;;1.70;99.90;;;;;;6096453;23;20539;-86
2022/03/04 01:05:37;;;;;;;13.50;5.88;;;1.70;99.90;;;;;;6098348;23;20041;-86
2022/03/04 01:08:03;;;;;;;14.38;6.45;;;1.60;99.90;;;;;;6119739;23;20065;-86
2022/03/04 01:10:29;;;;;;;14.35;6.43;;;1.60;99.90;;;;;;6122086;23;20013;-86
2022/03/04 01:12:55;;;;;;;13.77;6.60;;;1.60;99.90;;;;;;6121709;23;20114;-85
2022/03/04 01:15:21;;;;;;;15.90;6.55;;;1.50;99.90;;;;;;6120766;23;20045;-86
2022/03/04 01:17:46;;;;;;;12.68;6.32;;;1.50;99.90;;;;;;6121999;23;20017;-86
2022/03/04 01:20:12;;;;;;;13.75;6.65;;;1.50;99.90;;;;;;6121388;23;20054;-86
2022/03/04 01:22:37;;;;;;;13.60;5.70;;;1.50;99.90;;;;;;6121702;23;20056;-86
2022/03/04 01:25:04;;;;;;;12.20;6.03;;;1.40;99.90;;;;;;6120818;23;20459;-86
2022/03/04 01:27:29;;;;;;;13.90;6.90;;;1.40;99.90;;;;;;6096452;23;20018;-85
2022/03/04 01:29:55;;;;;;;13.75;5.57;;;1.40;99.90;;;;;;6122673;23;20089;-85
2022/03/04 01:32:20;;;;;;;16.35;6.20;;;1.40;99.90;;;;;;6121589;23;20576;-86
2022/03/04 01:34:46;;;;;;;12.73;5.75;;;1.40;99.90;;;;;;6097223;23;20021;-86
2022/03/04 01:37:12;;;;;;;12.75;5.60;;;1.30;99.90;;;;;;6119907;23;20093;-86
2022/03/04 01:39:37;;;;;;;14.13;6.57;;;1.30;99.90;;;;;;6122366;23;20470;-85
2022/03/04 01:42:03;;;;;;;13.27;5.90;;;1.30;99.90;;;;;;6121961;23;20018;-86
2022/03/04 01:44:29;;;;;;;11.93;5.13;;;1.20;99.90;;;;;;6094788;23;20204;-86
2022/03/04 01:46:55;;;;;;;16.40;5.65;;;1.20;99.90;;;;;;6120891;23;20049;-86
2022/03/04 01:49:21;;;;;;;12.43;5.80;;;1.20;99.90;;;;;;6120741;23;20022;-86
2022/03/04 01:51:46;;;;;;;11.40;4.93;;;1.20;99.90;;;;;;6121087;23;20092;-86
2022/03/04 01:54:12;;;;;;;11.32;4.95;;;1.20;99.90;;;;;;6119585;23;20086;-86
2022/03/04 01:56:38;;;;;;;13.18;6.18;;;1.10;99.90;;;;;;6120941;23;20085;-85
2022/03/04 01:59:04;;;;;;;13.45;6.43;;;1.10;99.90;;;;;;6097278;23;20010;-86
2022/03/04 02:01:30;;;;;;;10.55;5.90;;;1.00;99.90;;;;;;6097207;23;20468;-85
2022/03/04 02:03:56;;;;;;;13.05;5.55;;;1.00;99.90;;;;;;6095657;23;20053;-86
2022/03/04 02:06:21;;;;;;;13.10;6.15;;;1.00;99.90;;;;;;6120299;23;20033;-85
2022/03/04 02:08:47;;;;;;;12.35;4.88;;;1.00;99.90;;;;;;6097282;23;20018;-85
2022/03/04 02:11:13;;;;;;;11.60;5.15;;;1.00;99.90;;;;;;6097053;23;20014;-85
2022/03/04 02:13:39;;;;;;;13.45;5.30;;;1.00;99.90;;;;;;6095111;23;20347;-86
2022/03/04 02:16:18;;;;;;;14.55;6.18;;;0.90;99.90;;;;;;6096220;23;20024;-86
2022/03/04 02:18:44;;;;;;;10.60;5.20;;;0.90;99.90;;;;;;6096087;23;20041;-86
2022/03/04 02:21:13;;;;;;;12.18;5.38;;;0.90;99.90;;;;;;6120883;23;20406;-86
2022/03/04 02:23:38;;;;;;;13.65;4.82;;;0.90;99.90;;;;;;6096332;23;20018;-85
2022/03/04 02:26:04;;;;;;;10.65;4.82;;;0.80;99.90;;;;;;6120084;23;20014;-86
2022/03/04 02:28:29;;;;;;;13.18;5.75;;;0.80;99.90;;;;;;6094725;23;20395;-85
2022/03/04 02:30:55;;;;;;;10.45;5.15;;;0.80;99.90;;;;;;6121530;23;20010;-85
2022/03/04 02:33:21;;;;;;;11.07;4.70;;;0.80;99.90;;;;;;6120310;23;20025;-86
2022/03/04 02:35:48;;;;;;;12.38;5.60;;;0.80;99.90;;;;;;6120297;23;20313;-85
2022/03/04 02:38:13;;;;;;;12.25;5.15;;;0.70;99.90;;;;;;6093613;23;20405;-85
2022/03/04 02:40:39;;;;;;;11.95;5.35;;;0.70;99.90;;;;;;6120750;23;20159;-85
2022/03/04 02:43:05;;;;;;;12.90;5.93;;;0.70;99.90;;;;;;6120290;23;20104;-85
2022/03/04 02:45:31;;;;;;;12.20;5.22;;;0.70;99.90;;;;;;6119333;23;20021;-86
2022/03/04 02:47:56;;;;;;;13.73;5.40;;;0.70;99.90;;;;;;6120806;23;20451;-85
2022/03/04 02:50:22;;;;;;;10.45;4.57;;;0.70;99.90;;;;;;6120490;23;20014;-85
2022/03/04 02:52:48;;;;;;;12.50;5.75;;;0.60;99.90;;;;;;6095375;23;20012;-86
2022/03/04 02:55:14;;;;;;;12.27;5.28;;;0.60;99.90;;;;;;6120378;23;20018;-86
2022/03/04 02:57:45;;;;;;;13.30;6.18;;;0.60;99.90;;;;;;6097537;23;20428;-86
2022/03/04 03:00:13;;;;;;;14.52;5.70;;;0.50;99.90;;;;;;6121358;23;20452;-86
2022/03/04 03:02:39;;;;;;;11.43;5.25;;;0.50;99.90;;;;;;6098091;23;20478;-86
2022/03/04 03:05:05;;;;;;;14.13;5.97;;;0.50;99.90;;;;;;6096341;23;20021;-86
2022/03/04 03:07:31;;;;;;;10.25;5.35;;;0.50;99.90;;;;;;6096639;23;20055;-86
2022/03/04 03:09:57;;;;;;;11.80;5.57;;;0.50;99.90;;;;;;6097776;23;20040;-85
2022/03/04 03:12:22;;;;;;;11.73;5.22;;;0.50;99.90;;;;;;6098034;23;20010;-86
2022/03/04 03:14:48;;;;;;;13.05;6.10;;;0.40;99.90;;;;;;6122586;23;20010;-86
2022/03/04 03:17:14;;;;;;;11.82;5.25;;;0.40;99.90;;;;;;6097280;23;20085;-86
2022/03/04 03:19:39;;;;;;;12.50;5.82;;;0.50;99.90;;;;;;6097555;23;20006;-86
2022/03/04 03:22:05;;;;;;;13.65;5.78;;;0.40;99.90;;;;;;6120887;23;20356;-85
2022/03/04 03:24:31;;;;;;;11.90;5.57;;;0.40;99.90;;;;;;6119991;23;20049;-85
2022/03/04 03:26:56;;;;;;;13.40;5.53;;;0.40;99.90;;;;;;6121645;23;20021;-86
2022/03/04 03:29:22;;;;;;;13.00;6.18;;;0.30;99.90;;;;;;6121402;23;20089;-85
2022/03/04 03:31:48;;;;;;;11.48;5.80;;;0.30;99.90;;;;;;6121925;23;20084;-85
2022/03/04 03:34:14;;;;;;;13.80;6.07;;;0.30;99.90;;;;;;6097046;23;20077;-85
2022/03/04 03:36:40;;;;;;;12.88;5.72;;;0.20;99.90;;;;;;6121051;23;20006;-86
2022/03/04 03:39:08;;;;;;;13.77;6.28;;;0.20;99.90;;;;;;6120510;23;20669;-86
2022/03/04 03:41:34;;;;;;;15.18;5.57;;;0.20;99.90;;;;;;6097773;23;20021;-85
2022/03/04 03:44:00;;;;;;;13.07;5.88;;;0.20;99.90;;;;;;6120744;23;20527;-85
2022/03/04 03:46:26;;;;;;;11.40;5.63;;;0.20;99.90;;;;;;6121031;23;20024;-86
2022/03/04 03:48:52;;;;;;;12.60;5.40;;;0.10;99.90;;;;;;6121830;23;20077;-86
2022/03/04 03:51:19;;;;;;;12.15;5.78;;;0.10;99.90;;;;;;6096223;23;20098;-85
2022/03/04 03:53:44;;;;;;;14.18;6.57;;;0.10;99.90;;;;;;6096657;23;20267;-86
2022/03/04 03:56:10;;;;;;;17.05;6.53;;;0.10;99.90;;;;;;6097334;23;20036;-85
2022/03/04 03:58:35;;;;;;;13.73;5.95;;;0.10;99.90;;;;;;6122693;23;20025;-86
2022/03/04 04:01:02;;;;;;;14.65;6.45;;;0.00;99.90;;;;;;6121764;23;20010;-85
2022/03/04 04:03:28;;;;;;;13.93;6.03;;;0.00;99.90;;;;;;6096636;23;20018;-86
2022/03/04 04:05:53;;;;;;;17.80;7.38;;;0.00;99.90;;;;;;6122153;23;20042;-86
2022/03/04 04:08:19;;;;;;;14.48;6.35;;;0.00;99.90;;;;;;6119805;23;20020;-86
2022/03/04 04:10:45;;;;;;;14.90;6.80;;;0.00;99.90;;;;;;6097874;23;20448;-86
2022/03/04 04:13:11;;;;;;;14.50;6.38;;;0.00;99.90;;;;;;6121745;23;20033;-86
2022/03/04 04:15:37;;;;;;;17.85;6.85;;;0.00;99.90;;;;;;6121871;23;20017;-85
2022/03/04 04:18:02;;;;;;;14.13;6.93;;;0.00;99.90;;;;;;6095964;23;20352;-85
2022/03/04 04:20:28;;;;;;;15.93;7.10;;;0.00;99.90;;;;;;6096241;23;20024;-86
2022/03/04 04:22:54;;;;;;;15.95;6.35;;;0.00;99.90;;;;;;6120011;23;20332;-86
2022/03/04 04:25:19;;;;;;;17.73;7.78;;;0.00;99.90;;;;;;6121249;23;20028;-85
2022/03/04 04:27:45;;;;;;;18.10;7.45;;;-0.10;99.90;;;;;;6096324;23;20014;-85
2022/03/04 04:30:11;;;;;;;16.83;6.72;;;-0.10;99.90;;;;;;6122083;23;20137;-86
2022/03/04 04:32:36;;;;;;;15.73;7.38;;;-0.10;99.90;;;;;;6095818;23;20029;-86
2022/03/04 04:35:03;;;;;;;15.07;7.32;;;-0.10;99.90;;;;;;6120136;23;20029;-86
2022/03/04 04:37:28;;;;;;;14.25;6.93;;;-0.20;99.90;;;;;;6120061;23;20347;-86
2022/03/04 04:39:54;;;;;;;17.00;7.05;;;-0.20;99.90;;;;;;6096383;23;20325;-85
2022/03/04 04:42:20;;;;;;;16.95;7.90;;;-0.20;99.90;;;;;;6120791;23;20010;-85
2022/03/04 04:44:45;;;;;;;15.63;7.43;;;-0.20;99.90;;;;;;6096226;23;20029;-86
2022/03/04 04:47:12;;;;;;;16.60;7.80;;;-0.20;99.90;;;;;;6118958;23;20459;-86
2022/03/04 04:49:38;;;;;;;15.20;6.57;;;-0.20;99.90;;;;;;6096660;23;20356;-86
2022/03/04 04:52:08;;;;;;;15.65;6.95;;;-0.30;99.90;;;;;;6096264;23;20040;-86
2022/03/04 04:54:35;;;;;;;18.20;7.88;;;-0.30;99.90;;;;;;6121424;23;20014;-86
2022/03/04 04:57:01;;;;;;;18.48;7.53;;;-0.30;99.90;;;;;;6120881;23;20022;-85
2022/03/04 04:59:27;;;;;;;19.17;9.00;;;-0.30;99.90;;;;;;6120045;23;20022;-85
2022/03/04 05:01:53;;;;;;;24.02;8.95;;;-0.40;99.90;;;;;;6096543;23;20325;-85
2022/03/04 05:04:18;;;;;;;18.63;8.57;;;-0.40;99.90;;;;;;6095906;23;20097;-86
2022/03/04 05:06:44;;;;;;;19.88;8.13;;;-0.40;99.90;;;;;;6095500;23;20037;-85
2022/03/04 05:09:37;;;;;;;19.40;8.65;;;-0.40;99.90;;;;;;6096027;23;20021;-85
2022/03/04 05:12:03;;;;;;;;;;;-0.40;99.90;;;;;;6122055;23;20037;-86
2022/03/04 05:14:28;;;;;;;18.42;8.38;;;-0.50;99.90;;;;;;6120298;23;20281;-86
2022/03/04 05:16:54;;;;;;;19.13;8.23;;;-0.50;99.90;;;;;;6095970;23;20039;-85
2022/03/04 05:19:19;;;;;;;18.73;8.55;;;-0.50;99.90;;;;;;6095770;23;20014;-86
2022/03/04 05:21:45;;;;;;;21.48;9.15;;;-0.50;99.90;;;;;;6119578;23;20041;-85
2022/03/04 05:24:12;;;;;;;20.42;9.25;;;-0.50;99.90;;;;;;6094199;23;20073;-85
2022/03/04 05:26:39;;;;;;;20.30;8.80;;;-0.50;99.90;;;;;;6120268;23;20064;-86
2022/03/04 05:29:09;;;;;;;19.73;9.20;;;-0.60;99.90;;;;;;6096250;23;20045;-85
2022/03/04 05:31:38;;;;;;;23.20;9.50;;;-0.60;99.90;;;;;;6121379;23;20014;-86
2022/03/04 05:34:06;;;;;;;21.00;9.60;;;-0.60;99.90;;;;;;6120029;23;20022;-85
2022/03/04 05:36:32;;;;;;;19.50;8.88;;;-0.60;99.90;;;;;;6120161;23;20094;-85
2022/03/04 05:38:59;;;;;;;24.67;10.20;;;-0.60;99.90;;;;;;6120189;23;20395;-86
2022/03/04 05:41:25;;;;;;;21.08;10.85;;;-0.70;99.90;;;;;;6120827;23;20546;-85
2022/03/04 05:43:51;;;;;;;25.55;10.70;;;-0.70;99.90;;;;;;6120054;23;20021;-86
2022/03/04 05:46:20;;;;;;;23.25;9.27;;;-0.70;99.90;;;;;;6095061;23;20487;-85
2022/03/04 05:48:46;;;;;;;25.17;10.70;;;-0.70;99.90;;;;;;6120666;23;20348;-86
2022/03/04 05:51:12;;;;;;;24.50;10.85;;;-0.70;99.90;;;;;;6094935;23;20020;-86
2022/03/04 05:53:38;;;;;;;24.75;10.55;;;-0.70;99.90;;;;;;6120169;23;20404;-86
2022/03/04 05:56:05;;;;;;;29.42;12.15;;;-0.70;99.90;;;;;;6095564;23;20014;-86
2022/03/04 05:58:30;;;;;;;23.33;10.25;;;-0.80;99.90;;;;;;6119948;23;20026;-85
2022/03/04 06:00:56;;;;;;;22.70;10.77;;;-0.80;99.90;;;;;;6119488;23;20018;-86
2022/03/04 06:03:25;;;;;;;24.73;10.13;;;-0.80;99.90;;;;;;6118569;23;20037;-85
2022/03/04 06:05:51;;;;;;;20.45;9.80;;;-0.80;99.90;;;;;;6119061;23;20057;-85
2022/03/04 06:08:20;;;;;;;28.65;11.52;;;-0.80;99.90;;;;;;6070510;23;20022;-86
2022/03/04 06:10:46;;;;;;;23.95;11.10;;;-0.80;99.90;;;;;;6095572;23;20014;-86
2022/03/04 06:13:12;;;;;;;24.95;10.85;;;-0.90;99.90;;;;;;6120669;23;20022;-85
2022/03/04 06:15:38;;;;;;;27.38;10.98;;;-0.80;99.90;;;;;;6095846;23;20016;-85
2022/03/04 06:18:03;;;;;;;27.98;12.23;;;-0.80;99.90;;;;;;6119874;23;20016;-85
2022/03/04 06:20:29;;;;;;;28.85;12.88;;;-0.80;99.90;;;;;;6118420;23;20029;-85
2022/03/04 06:22:55;;;;;;;27.38;12.10;;;-0.80;99.90;;;;;;6117042;23;20010;-86
2022/03/04 06:25:20;;;;;;;28.33;12.35;;;-0.70;99.90;;;;;;6118429;23;20445;-85
2022/03/04 06:27:57;;;;;;;31.80;13.00;;;-0.70;99.90;;;;;;6119241;23;20029;-85
2022/03/04 06:30:23;;;;;;;29.40;12.20;;;-0.60;99.90;;;;;;6093323;23;20014;-86
2022/03/04 06:32:50;;;;;;;30.85;11.80;;;-0.70;99.90;;;;;;6096132;23;20089;-86
2022/03/04 06:35:16;;;;;;;28.67;11.88;;;-0.60;99.90;;;;;;6120787;23;20317;-86
2022/03/04 06:37:43;;;;;;;24.58;11.63;;;-0.60;99.90;;;;;;6096511;23;20021;-86
2022/03/04 06:40:10;;;;;;;26.27;11.38;;;-0.60;99.90;;;;;;6097818;23;20093;-86
2022/03/04 06:42:35;;;;;;;25.92;11.55;;;-0.60;99.90;;;;;;6120963;23;20049;-86
2022/03/04 06:45:02;;;;;;;26.98;11.57;;;-0.50;99.90;;;;;;6096727;23;20018;-86
2022/03/04 06:47:28;;;;;;;28.17;12.35;;;-0.50;99.90;;;;;;6096026;23;20017;-87
2022/03/04 06:49:53;;;;;;;25.88;11.68;;;-0.50;99.90;;;;;;6121712;23;20474;-86
2022/03/04 06:52:21;;;;;;;28.00;12.20;;;-0.50;99.90;;;;;;6117215;23;20020;-86
2022/03/04 06:54:47;;;;;;;27.52;11.10;;;-0.40;99.90;;;;;;6121003;23;20642;-85
2022/03/04 06:57:13;;;;;;;24.27;10.63;;;-0.40;99.90;;;;;;6095137;23;20069;-85
2022/03/04 06:59:38;;;;;;;27.13;12.02;;;-0.40;99.90;;;;;;6121889;23;20056;-86
2022/03/04 07:02:06;;;;;;;27.45;11.88;;;-0.40;99.90;;;;;;6120652;23;20024;-86
2022/03/04 07:04:32;;;;;;;24.55;11.82;;;-0.30;99.90;;;;;;6098228;23;20155;-86
2022/03/04 07:06:58;;;;;;;28.80;12.02;;;-0.30;99.90;;;;;;6119832;23;20523;-86
2022/03/04 07:09:24;;;;;;;27.05;11.68;;;-0.30;99.90;;;;;;6098047;23;20069;-85
2022/03/04 07:11:49;;;;;;;25.25;11.48;;;-0.20;99.90;;;;;;6097600;23;20017;-85
2022/03/04 07:14:15;;;;;;;27.20;11.45;;;-0.20;99.90;;;;;;6096521;23;20029;-84
2022/03/04 07:16:40;;;;;;;24.92;11.45;;;-0.20;99.90;;;;;;6121408;23;20029;-84
2022/03/04 07:19:07;;;;;;;28.65;11.95;;;-0.10;99.90;;;;;;6120508;23;20013;-84
2022/03/04 07:21:33;;;;;;;24.75;11.85;;;-0.10;99.90;;;;;;6118962;23;20017;-84
2022/03/04 07:23:59;;;;;;;28.02;12.48;;;-0.10;99.90;;;;;;6098690;23;20036;-84
2022/03/04 07:26:24;;;;;;;27.85;12.32;;;-0.10;99.90;;;;;;6118585;23;20045;-84
2022/03/04 07:28:50;;;;;;;30.45;13.00;;;0.00;99.90;;;;;;6098988;23;20379;-84
2022/03/04 07:31:16;;;;;;;32.22;13.05;;;0.00;99.90;;;;;;6092893;23;20040;-84
2022/03/04 07:33:42;;;;;;;29.25;11.43;;;0.00;99.90;;;;;;6117282;23;20171;-84
2022/03/04 07:36:07;;;;;;;25.20;11.98;;;0.00;99.90;;;;;;6118426;23;20018;-84
2022/03/04 07:38:33;;;;;;;28.88;11.50;;;0.00;99.90;;;;;;6096453;23;20090;-84
2022/03/04 07:40:59;;;;;;;28.95;12.18;;;0.00;99.90;;;;;;6095596;23;20511;-84
2022/03/04 07:43:28;;;;;;;25.95;11.95;;;0.00;99.90;;;;;;6120382;23;20025;-84
2022/03/04 07:45:53;;;;;;;24.55;12.02;;;0.10;99.90;;;;;;6094865;23;20017;-84
2022/03/04 07:48:19;;;;;;;28.80;12.05;;;0.10;99.90;;;;;;6119477;23;20467;-84
2022/03/04 07:50:44;;;;;;;29.05;12.55;;;0.10;99.90;;;;;;6120097;23;20096;-84
2022/03/04 07:53:10;;;;;;;28.23;12.40;;;0.20;99.90;;;;;;6095024;23;20014;-83
2022/03/04 07:55:36;;;;;;;28.85;12.35;;;0.20;99.90;;;;;;6120298;23;20018;-84
2022/03/04 07:58:01;;;;;;;32.47;13.90;;;0.20;99.90;;;;;;6093929;23;20014;-84
2022/03/04 08:00:27;;;;;;;31.85;13.82;;;0.30;99.90;;;;;;6096957;23;20475;-84
2022/03/04 08:02:54;;;;;;;34.15;13.32;;;0.40;99.90;;;;;;6121361;23;20018;-84
2022/03/04 08:05:20;;;;;;;28.33;12.38;;;0.40;99.90;;;;;;6095739;23;20491;-84
2022/03/04 08:07:46;;;;;;;28.27;12.43;;;0.40;99.90;;;;;;6119973;23;20021;-84
2022/03/04 08:10:12;;;;;;;24.92;12.65;;;0.50;99.90;;;;;;6096748;23;20021;-84
2022/03/04 08:12:39;;;;;;;29.10;12.45;;;0.50;99.90;;;;;;6094451;23;20347;-84
2022/03/04 08:15:07;;;;;;;36.10;15.15;;;0.60;99.90;;;;;;6119940;23;20032;-84
2022/03/04 08:17:33;;;;;;;26.13;11.57;;;0.60;99.90;;;;;;6120356;23;20024;-85
2022/03/04 08:19:59;;;;;;;32.55;13.80;;;0.70;99.90;;;;;;6095783;23;20375;-84
2022/03/04 08:22:25;;;;;;;29.30;12.77;;;0.70;99.90;;;;;;6118375;23;20356;-84
2022/03/04 08:24:51;;;;;;;30.63;12.25;;;0.80;99.90;;;;;;6119638;23;20022;-84
2022/03/04 08:27:16;;;;;;;27.05;12.43;;;0.80;99.90;;;;;;6121278;23;20329;-84
2022/03/04 08:29:42;;;;;;;29.63;13.70;;;0.80;99.90;;;;;;6095969;23;20017;-84
2022/03/04 08:32:08;;;;;;;30.48;13.05;;;0.80;99.90;;;;;;6094652;23;20317;-84
2022/03/04 08:34:34;;;;;;;32.03;13.10;;;0.80;99.90;;;;;;6094909;23;20010;-84
2022/03/04 08:37:00;;;;;;;29.95;13.50;;;0.90;99.90;;;;;;6095700;23;20014;-84
2022/03/04 08:39:26;;;;;;;29.73;12.30;;;0.90;99.90;;;;;;6119375;23;20014;-84
2022/03/04 08:41:52;;;;;;;36.17;13.20;;;1.00;99.90;;;;;;6120884;23;20057;-84
2022/03/04 08:44:17;;;;;;;29.80;14.10;;;1.00;99.90;;;;;;6119554;23;20021;-84
2022/03/04 08:46:43;;;;;;;30.08;13.05;;;1.10;99.90;;;;;;6096928;23;20021;-84
2022/03/04 08:49:09;;;;;;;32.08;13.43;;;1.20;99.90;;;;;;6096521;23;20014;-84
2022/03/04 08:51:36;;;;;;;31.13;12.77;;;1.20;99.90;;;;;;6095991;23;20105;-84
2022/03/04 08:54:03;;;;;;;28.50;12.90;;;1.30;99.90;;;;;;6119362;23;20018;-84
2022/03/04 08:56:28;;;;;;;32.50;14.00;;;1.40;99.90;;;;;;6096739;23;20017;-84
2022/03/04 08:58:54;;;;;;;30.33;13.45;;;1.50;99.90;;;;;;6097053;23;20010;-84
2022/03/04 09:01:20;;;;;;;29.90;13.85;;;1.60;99.90;;;;;;6095185;23;20029;-84
2022/03/04 09:03:46;;;;;;;30.45;13.63;;;1.70;99.90;;;;;;6120950;23;20022;-84
2022/03/04 09:06:12;;;;;;;34.58;13.93;;;1.70;99.90;;;;;;6094996;23;20038;-84
2022/03/04 09:08:38;;;;;;;33.35;14.48;;;1.80;99.90;;;;;;6119836;23;20029;-84
2022/03/04 09:11:04;;;;;;;30.27;13.60;;;1.90;99.90;;;;;;6096796;23;20332;-84
2022/03/04 09:13:32;;;;;;;24.27;11.70;;;2.00;99.90;;;;;;6120601;23;20018;-84
2022/03/04 09:16:02;;;;;;;32.67;15.27;;;2.10;99.90;;;;;;6119081;23;20114;-84
2022/03/04 09:18:28;;;;;;;24.88;11.75;;;2.20;99.90;;;;;;6073539;23;20014;-84
2022/03/04 09:20:54;;;;;;;29.23;14.23;;;2.20;99.90;;;;;;6119702;23;20120;-84
2022/03/04 09:23:21;;;;;;;26.20;12.90;;;2.30;99.90;;;;;;6095054;23;20087;-84
2022/03/04 09:25:48;;;;;;;30.10;13.52;;;2.30;99.90;;;;;;6121585;23;20018;-84
2022/03/04 09:28:15;;;;;;;32.08;14.02;;;2.40;99.90;;;;;;6119559;23;20028;-84
2022/03/04 09:30:41;;;;;;;29.02;13.43;;;2.40;99.90;;;;;;6096272;23;20028;-84
2022/03/04 09:33:07;;;;;;;29.55;13.88;;;2.40;99.90;;;;;;6096641;23;20096;-83
2022/03/04 09:35:33;;;;;;;31.48;13.93;;;2.50;99.90;;;;;;6118673;23;20024;-83
2022/03/04 09:37:59;;;;;;;25.92;12.20;;;2.60;99.90;;;;;;6119821;23;20022;-83
2022/03/04 09:40:25;;;;;;;31.77;14.20;;;2.70;99.90;;;;;;6095881;23;20414;-84
2022/03/04 09:42:53;;;;;;;26.58;13.50;;;2.70;99.90;;;;;;6120067;23;20119;-84
2022/03/04 09:45:19;;;;;;;29.27;13.32;;;2.70;99.90;;;;;;6119136;23;20448;-84
2022/03/04 09:47:46;;;;;;;27.25;13.13;;;2.60;99.90;;;;;;6094540;23;20013;-83
2022/03/04 09:50:16;;;;;;;26.73;12.48;;;2.70;99.90;;;;;;6094016;23;20557;-84
2022/03/04 09:52:42;;;;;;;26.98;12.77;;;2.70;99.90;;;;;;6094260;23;20077;-84
2022/03/04 09:55:09;;;;;;;27.83;12.70;;;2.70;99.90;;;;;;6096574;23;20416;-84
2022/03/04 09:57:35;;;;;;;31.83;14.10;;;2.70;99.90;;;;;;6120759;23;20355;-84
2022/03/04 10:00:04;;;;;;;29.77;13.60;;;2.70;99.90;;;;;;6094996;23;20014;-83
2022/03/04 10:02:33;;;;;;;26.75;13.10;;;2.70;99.90;;;;;;6094866;23;20089;-84
2022/03/04 10:05:00;;;;;;;28.00;13.32;;;2.70;99.90;;;;;;6119998;23;20029;-84
2022/03/04 10:07:27;;;;;;;26.05;12.43;;;2.70;99.90;;;;;;6120514;23;20460;-84
2022/03/04 10:09:52;;;;;;;30.42;14.10;;;2.80;99.90;;;;;;6122569;23;20014;-84
2022/03/04 10:12:22;;;;;;;25.88;13.02;;;2.80;99.90;;;;;;6123123;23;20010;-84
2022/03/04 10:15:04;;;;;;;30.48;13.13;;;2.90;99.90;;;;;;6121358;23;20401;-84
2022/03/04 10:17:36;;;;;;;29.67;13.32;;;3.00;99.90;;;;;;6096847;23;20006;-84
2022/03/04 10:20:06;;;;;;;30.02;12.88;;;3.20;99.90;;;;;;6120178;23;20024;-84
2022/03/04 10:22:46;;;;;;;25.67;12.40;;;3.30;99.90;;;;;;6095260;23;20018;-84
2022/03/04 10:25:24;;;;;;;31.05;13.70;;;3.50;99.90;;;;;;6096278;23;20033;-84
2022/03/04 10:27:51;;;;;;;27.27;12.20;;;3.60;99.90;;;;;;6097668;23;20045;-84
2022/03/04 10:30:28;;;;;;;27.98;13.35;;;3.60;99.90;;;;;;6121302;23;20041;-84
2022/03/04 10:33:08;;;;;;;25.65;12.32;;;3.70;99.90;;;;;;6122337;23;20444;-84
2022/03/04 10:35:35;;;;;;;25.27;12.23;;;3.80;99.90;;;;;;6097539;23;20029;-84
2022/03/04 10:38:00;;;;;;;26.75;12.93;;;3.90;99.90;;;;;;6121148;23;20009;-84
2022/03/04 10:40:35;;;;;;;24.55;12.43;;;4.00;99.90;;;;;;6121215;23;20017;-84
2022/03/04 10:43:06;;;;;;;26.70;12.98;;;4.20;99.90;;;;;;6121508;23;20092;-84
2022/03/04 10:45:34;;;;;;;28.63;13.55;;;4.30;99.90;;;;;;6095674;23;20400;-84
2022/03/04 10:48:03;;;;;;;25.85;12.48;;;4.30;99.90;;;;;;6097863;23;20124;-84
2022/03/04 10:50:42;;;;;;;27.20;12.52;;;4.40;99.90;;;;;;6096210;23;20414;-84
2022/03/04 10:53:10;;;;;;;24.02;12.15;;;4.40;99.90;;;;;;6120587;23;20018;-84
2022/03/04 10:55:48;;;;;;;26.63;12.70;;;4.40;99.90;;;;;;6096001;23;20021;-84
2022/03/04 10:58:19;;;;;;;26.63;12.30;;;4.50;99.90;;;;;;6119639;23;20021;-84
2022/03/04 11:00:51;;;;;;;24.35;11.90;;;4.60;99.90;;;;;;6097891;23;20498;-84
2022/03/04 11:03:19;;;;;;;29.25;13.18;;;4.70;99.90;;;;;;6120811;23;20013;-84
2022/03/04 11:05:47;;;;;;;23.15;11.48;;;4.80;99.90;;;;;;6119065;23;20421;-84
2022/03/04 11:08:13;;;;;;;25.75;12.13;;;4.90;99.90;;;;;;6120180;23;20162;-84
2022/03/04 11:10:40;;;;;;;27.25;13.20;;;5.00;99.90;;;;;;6122103;23;20112;-84
2022/03/04 11:13:08;;;;;;;24.20;11.10;;;5.20;99.90;;;;;;6097626;23;20328;-84
2022/03/04 11:15:35;;;;;;;24.90;12.02;;;5.30;99.90;;;;;;6121417;23;20010;-84
2022/03/04 11:18:03;;;;;;;25.80;12.38;;;5.30;99.90;;;;;;6121673;23;20010;-84
2022/03/04 11:20:29;;;;;;;27.83;12.77;;;5.40;99.90;;;;;;6096528;23;20156;-84
2022/03/04 11:22:55;;;;;;;30.02;13.13;;;5.50;99.90;;;;;;6118594;23;20049;-84
2022/03/04 11:25:22;;;;;;;30.27;13.70;;;5.60;99.90;;;;;;6096626;23;20017;-84
2022/03/04 11:27:51;;;;;;;26.75;13.25;;;5.60;99.90;;;;;;6098046;23;20060;-84
2022/03/04 11:30:30;;;;;;;26.02;12.65;;;5.80;99.90;;;;;;6121824;23;20037;-84
2022/03/04 11:33:12;;;;;;;24.63;12.85;;;5.80;99.90;;;;;;6071423;23;20337;-84
2022/03/04 11:35:57;;;;;;;24.17;12.05;;;5.90;99.90;;;;;;6120615;23;20021;-84
2022/03/04 11:38:47;;;;;;;26.02;13.65;;;5.90;99.90;;;;;;6095483;23;20068;-84
2022/03/04 11:41:23;;;;;;;26.75;11.98;;;6.00;99.90;;;;;;6112019;23;20021;-84
2022/03/04 11:43:51;;;;;;;25.13;12.77;;;6.10;99.90;;;;;;6072519;23;20032;-84
2022/03/04 11:46:27;;;;;;;23.40;11.82;;;6.20;99.90;;;;;;6093800;23;20010;-84
2022/03/04 11:49:28;;;;;;;26.73;12.50;;;6.30;99.90;;;;;;6092673;23;20021;-84
2022/03/04 11:52:09;;;;;;;27.27;12.93;;;6.30;99.90;;;;;;6095712;23;20014;-84
2022/03/04 11:54:58;;;;;;;27.23;13.05;;;6.50;99.90;;;;;;6095282;23;20025;-84
2022/03/04 11:57:28;;;;;;;26.92;13.20;;;6.60;99.90;;;;;;6054909;23;20020;-84
2022/03/04 11:59:56;;;;;;;28.30;14.50;;;6.70;99.90;;;;;;6097004;23;20085;-84
2022/03/04 12:02:48;;;;;;;29.00;13.65;;;6.80;99.90;;;;;;6096755;23;20066;-84
2022/03/04 12:05:25;;;;;;;28.60;12.20;;;6.80;99.90;;;;;;6092832;23;20057;-84
2022/03/04 12:07:56;;;;;;;29.52;12.80;;;6.90;99.90;;;;;;6072142;23;20018;-84
2022/03/04 12:10:46;;;;;;;30.15;13.15;;;7.10;99.90;;;;;;6072615;23;20363;-84
2022/03/04 12:13:13;;;;;;;25.75;11.77;;;7.40;99.90;;;;;;6096900;23;20475;-84
2022/03/04 12:15:40;;;;;;;26.92;13.00;;;7.80;99.00;;;;;;6072381;23;20053;-84
2022/03/04 12:18:16;;;;;;;26.55;14.30;;;8.40;97.60;;;;;;6096593;23;20401;-84
2022/03/04 12:20:42;;;;;;;28.05;12.93;;;9.00;95.20;;;;;;6072518;23;20057;-84
2022/03/04 12:23:14;;;;;;;27.38;13.25;;;9.40;92.20;;;;;;6071151;23;20040;-84
2022/03/04 12:26:08;;;;;;;22.85;11.80;;;9.80;89.40;;;;;;6073048;23;20016;-84
2022/03/04 12:28:49;;;;;;;25.90;12.95;;;10.30;85.60;;;;;;6072400;23;20022;-84
2022/03/04 12:31:20;;;;;;;22.30;11.70;;;10.80;80.80;;;;;;6071827;23;20524;-84
2022/03/04 12:33:54;;;;;;;22.40;11.63;;;11.10;76.90;;;;;;6072750;23;20015;-84
2022/03/04 12:36:21;;;;;;;23.50;12.15;;;11.40;71.50;;;;;;6070885;23;20014;-85
2022/03/04 12:38:58;;;;;;;24.95;12.35;;;11.70;72.60;;;;;;6096510;23;20010;-84
2022/03/04 12:41:29;;;;;;;24.65;12.38;;;12.20;70.40;;;;;;6097332;23;20097;-84